sensor_id;sensor_type;location;lat;lon;timestamp;pressure;altitude;pressure_sealevel;temperature;humidity
74621;BME280;75998;47.550;19.254;2024-01-25T00:00:34;99366.72;;;8.07;58.01
74621;BME280;75998;47.550;19.254;2024-01-25T00:02:59;99381.75;;;8.02;57.68
74621;BME280;75998;47.550;19.254;2024-01-25T00:05:26;99346.22;;;7.85;57.50
74621;BME280;75998;47.550;19.254;2024-01-25T00:07:52;99403.13;;;8.42;56.69
74621;BME280;75998;47.550;19.254;2024-01-25T00:10:18;99319.75;;;7.77;56.88
74621;BME280;75998;47.550;19.254;2024-01-25T00:12:45;99402.56;;;8.35;57.79
74621;BME280;75998;47.550;19.254;2024-01-25T00:15:18;99320.72;;;7.74;57.21
74621;BME280;75998;47.550;19.254;2024-01-25T00:17:43;99246.75;;;7.47;56.47
74621;BME280;75998;47.550;19.254;2024-01-25T00:20:10;99401.53;;;8.55;56.11
74621;BME280;75998;47.550;19.254;2024-01-25T00:22:39;99215.53;;;7.14;56.53
74621;BME280;75998;47.550;19.254;2024-01-25T00:25:05;99388.06;;;8.14;57.56
74621;BME280;75998;47.550;19.254;2024-01-25T00:27:33;99326.66;;;7.94;57.41
74621;BME280;75998;47.550;19.254;2024-01-25T00:29:58;99346.16;;;8.03;57.26
74621;BME280;75998;47.550;19.254;2024-01-25T00:32:23;99258.88;;;7.64;56.29
74621;BME280;75998;47.550;19.254;2024-01-25T00:34:49;99358.69;;;8.12;57.18
74621;BME280;75998;47.550;19.254;2024-01-25T00:37:15;99236.66;;;7.41;57.14
74621;BME280;75998;47.550;19.254;2024-01-25T00:39:44;99404.88;;;8.57;56.53
74621;BME280;75998;47.550;19.254;2024-01-25T00:42:13;99374.31;;;8.28;56.62
74621;BME280;75998;47.550;19.254;2024-01-25T00:44:40;99405.78;;;8.40;57.30
74621;BME280;75998;47.550;19.254;2024-01-25T00:47:05;99347.06;;;7.86;57.78
74621;BME280;75998;47.550;19.254;2024-01-25T00:49:32;99388.72;;;8.35;56.41
74621;BME280;75998;47.550;19.254;2024-01-25T00:52:02;99394.31;;;8.44;56.90
74621;BME280;75998;47.550;19.254;2024-01-25T00:54:29;99211.13;;;6.98;57.31
74621;BME280;75998;47.550;19.254;2024-01-25T00:56:55;99345.31;;;8.35;55.87
74621;BME280;75998;47.550;19.254;2024-01-25T00:59:21;99397.94;;;8.24;56.79
74621;BME280;75998;47.550;19.254;2024-01-25T01:01:47;99332.47;;;7.99;56.61
74621;BME280;75998;47.550;19.254;2024-01-25T01:04:17;99407.75;;;8.53;55.69
74621;BME280;75998;47.550;19.254;2024-01-25T01:06:43;99331.38;;;7.70;57.43
74621;BME280;75998;47.550;19.254;2024-01-25T01:09:08;99209.75;;;7.09;57.12
74621;BME280;75998;47.550;19.254;2024-01-25T01:11:34;99200.97;;;6.94;57.00
74621;BME280;75998;47.550;19.254;2024-01-25T01:14:01;99262.09;;;7.51;56.27
74621;BME280;75998;47.550;19.254;2024-01-25T01:16:27;99388.44;;;8.23;56.93
74621;BME280;75998;47.550;19.254;2024-01-25T01:18:55;99252.13;;;7.44;56.47
74621;BME280;75998;47.550;19.254;2024-01-25T01:21:21;99297.19;;;7.60;55.97
74621;BME280;75998;47.550;19.254;2024-01-25T01:23:50;99387.91;;;8.17;56.85
74621;BME280;75998;47.550;19.254;2024-01-25T01:26:15;99407.22;;;8.13;57.15
74621;BME280;75998;47.550;19.254;2024-01-25T01:28:45;99318.84;;;7.61;57.27
74621;BME280;75998;47.550;19.254;2024-01-25T01:31:13;99279.25;;;7.38;56.90
74621;BME280;75998;47.550;19.254;2024-01-25T01:33:39;99400.44;;;8.26;56.08
74621;BME280;75998;47.550;19.254;2024-01-25T01:36:05;99350.22;;;7.75;57.37
74621;BME280;75998;47.550;19.254;2024-01-25T01:38:31;99416.75;;;8.30;55.87
74621;BME280;75998;47.550;19.254;2024-01-25T01:40:57;99330.69;;;7.66;56.71
74621;BME280;75998;47.550;19.254;2024-01-25T01:43:23;99288.31;;;6.96;58.52
74621;BME280;75998;47.550;19.254;2024-01-25T01:45:49;99383.75;;;7.97;56.96
74621;BME280;75998;47.550;19.254;2024-01-25T01:48:15;99384.91;;;7.74;57.79
74621;BME280;75998;47.550;19.254;2024-01-25T01:50:41;99390.41;;;8.03;56.45
74621;BME280;75998;47.550;19.254;2024-01-25T01:53:16;99412.59;;;8.10;57.15
74621;BME280;75998;47.550;19.254;2024-01-25T01:55:42;99341.28;;;7.46;56.88
74621;BME280;75998;47.550;19.254;2024-01-25T01:58:09;99303.53;;;7.39;56.82
74621;BME280;75998;47.550;19.254;2024-01-25T02:00:36;99425.00;;;8.05;57.35
74621;BME280;75998;47.550;19.254;2024-01-25T02:03:03;99320.63;;;7.43;57.20
74621;BME280;75998;47.550;19.254;2024-01-25T02:05:29;99418.41;;;8.15;56.90
74621;BME280;75998;47.550;19.254;2024-01-25T02:07:54;99320.31;;;7.49;56.88
74621;BME280;75998;47.550;19.254;2024-01-25T02:10:20;99397.06;;;8.08;56.57
74621;BME280;75998;47.550;19.254;2024-01-25T02:12:48;99379.41;;;7.80;57.41
74621;BME280;75998;47.550;19.254;2024-01-25T02:15:13;99311.28;;;7.21;57.27
74621;BME280;75998;47.550;19.254;2024-01-25T02:17:39;99263.00;;;6.82;57.85
74621;BME280;75998;47.550;19.254;2024-01-25T02:20:05;99412.69;;;7.91;57.55
74621;BME280;75998;47.550;19.254;2024-01-25T02:22:31;99388.84;;;7.65;57.98
74621;BME280;75998;47.550;19.254;2024-01-25T02:24:59;99409.69;;;7.81;57.27
74621;BME280;75998;47.550;19.254;2024-01-25T02:27:25;99320.41;;;7.30;56.66
74621;BME280;75998;47.550;19.254;2024-01-25T02:29:50;99365.16;;;8.05;55.72
74621;BME280;75998;47.550;19.254;2024-01-25T02:32:16;99347.25;;;7.81;55.77
74621;BME280;75998;47.550;19.254;2024-01-25T02:34:41;99366.19;;;7.85;55.80
74621;BME280;75998;47.550;19.254;2024-01-25T02:37:07;99407.19;;;8.30;55.41
74621;BME280;75998;47.550;19.254;2024-01-25T02:39:32;99243.28;;;7.13;55.65
74621;BME280;75998;47.550;19.254;2024-01-25T02:41:58;99350.91;;;7.94;55.06
74621;BME280;75998;47.550;19.254;2024-01-25T02:44:23;99307.88;;;7.71;55.31
74621;BME280;75998;47.550;19.254;2024-01-25T02:46:48;99289.34;;;7.62;55.36
74621;BME280;75998;47.550;19.254;2024-01-25T02:49:16;99393.69;;;8.06;55.88
74621;BME280;75998;47.550;19.254;2024-01-25T02:51:42;99348.81;;;8.34;54.44
74621;BME280;75998;47.550;19.254;2024-01-25T02:54:07;99273.31;;;7.69;54.97
74621;BME280;75998;47.550;19.254;2024-01-25T02:56:33;99305.09;;;7.59;56.24
74621;BME280;75998;47.550;19.254;2024-01-25T02:59:03;99314.63;;;7.75;55.80
74621;BME280;75998;47.550;19.254;2024-01-25T03:01:40;99380.19;;;8.15;56.00
74621;BME280;75998;47.550;19.254;2024-01-25T03:04:07;99370.84;;;7.95;55.99
74621;BME280;75998;47.550;19.254;2024-01-25T03:06:33;99236.19;;;7.50;54.17
74621;BME280;75998;47.550;19.254;2024-01-25T03:08:58;99385.72;;;8.09;55.84
74621;BME280;75998;47.550;19.254;2024-01-25T03:11:24;99297.41;;;7.73;55.52
74621;BME280;75998;47.550;19.254;2024-01-25T03:13:52;99343.41;;;8.06;55.34
74621;BME280;75998;47.550;19.254;2024-01-25T03:16:23;99338.25;;;8.04;55.58
74621;BME280;75998;47.550;19.254;2024-01-25T03:18:49;99348.84;;;8.50;53.85
74621;BME280;75998;47.550;19.254;2024-01-25T03:21:14;99301.09;;;7.69;55.94
74621;BME280;75998;47.550;19.254;2024-01-25T03:23:40;99336.47;;;7.89;55.55
74621;BME280;75998;47.550;19.254;2024-01-25T03:26:05;99406.03;;;8.36;55.73
74621;BME280;75998;47.550;19.254;2024-01-25T03:28:31;99394.72;;;8.19;56.14
74621;BME280;75998;47.550;19.254;2024-01-25T03:30:58;99314.63;;;7.58;57.02
74621;BME280;75998;47.550;19.254;2024-01-25T03:33:23;99307.03;;;7.71;56.31
74621;BME280;75998;47.550;19.254;2024-01-25T03:35:50;99420.19;;;7.97;57.96
74621;BME280;75998;47.550;19.254;2024-01-25T03:38:15;99307.47;;;7.46;57.22
74621;BME280;75998;47.550;19.254;2024-01-25T03:40:41;99312.91;;;7.41;58.67
74621;BME280;75998;47.550;19.254;2024-01-25T03:43:06;99326.22;;;7.35;58.41
74621;BME280;75998;47.550;19.254;2024-01-25T03:45:32;99343.19;;;7.60;58.46
74621;BME280;75998;47.550;19.254;2024-01-25T03:47:58;99416.38;;;7.87;59.35
74621;BME280;75998;47.550;19.254;2024-01-25T03:50:23;99435.88;;;7.95;59.00
74621;BME280;75998;47.550;19.254;2024-01-25T03:52:49;99287.53;;;7.29;58.57
74621;BME280;75998;47.550;19.254;2024-01-25T03:55:16;99410.22;;;7.88;59.45
74621;BME280;75998;47.550;19.254;2024-01-25T03:57:42;99329.81;;;7.50;59.12
74621;BME280;75998;47.550;19.254;2024-01-25T04:00:08;99293.63;;;7.28;59.20
74621;BME280;75998;47.550;19.254;2024-01-25T04:02:34;99347.09;;;7.84;57.80
74621;BME280;75998;47.550;19.254;2024-01-25T04:05:00;99393.78;;;8.05;58.83
74621;BME280;75998;47.550;19.254;2024-01-25T04:07:28;99360.94;;;8.02;57.93
74621;BME280;75998;47.550;19.254;2024-01-25T04:09:54;99284.81;;;7.48;58.65
74621;BME280;75998;47.550;19.254;2024-01-25T04:12:20;99398.63;;;8.28;57.08
74621;BME280;75998;47.550;19.254;2024-01-25T04:14:46;99374.94;;;7.99;58.48
74621;BME280;75998;47.550;19.254;2024-01-25T04:17:11;99380.78;;;8.05;58.51
74621;BME280;75998;47.550;19.254;2024-01-25T04:19:37;99390.47;;;8.01;58.35
74621;BME280;75998;47.550;19.254;2024-01-25T04:22:05;99267.66;;;7.45;57.39
74621;BME280;75998;47.550;19.254;2024-01-25T04:24:30;99375.72;;;8.02;57.28
74621;BME280;75998;47.550;19.254;2024-01-25T04:26:56;99317.88;;;7.46;58.56
74621;BME280;75998;47.550;19.254;2024-01-25T04:29:22;99339.03;;;7.73;57.30
74621;BME280;75998;47.550;19.254;2024-01-25T04:31:47;99396.84;;;7.95;57.65
74621;BME280;75998;47.550;19.254;2024-01-25T04:34:19;99328.69;;;7.71;56.65
74621;BME280;75998;47.550;19.254;2024-01-25T04:36:44;99283.25;;;7.11;57.88
74621;BME280;75998;47.550;19.254;2024-01-25T04:39:09;99312.81;;;7.60;56.77
74621;BME280;75998;47.550;19.254;2024-01-25T04:41:36;99348.22;;;7.63;57.25
74621;BME280;75998;47.550;19.254;2024-01-25T04:44:01;99371.69;;;7.61;58.84
74621;BME280;75998;47.550;19.254;2024-01-25T04:46:27;99285.25;;;7.23;57.53
74621;BME280;75998;47.550;19.254;2024-01-25T04:48:53;99342.41;;;7.58;57.29
74621;BME280;75998;47.550;19.254;2024-01-25T04:51:19;99410.69;;;7.61;58.60
74621;BME280;75998;47.550;19.254;2024-01-25T04:53:45;99349.06;;;7.11;59.29
74621;BME280;75998;47.550;19.254;2024-01-25T04:56:11;99334.63;;;7.40;58.41
74621;BME280;75998;47.550;19.254;2024-01-25T04:58:36;99402.44;;;7.36;59.41
74621;BME280;75998;47.550;19.254;2024-01-25T05:01:02;99404.97;;;7.54;58.67
74621;BME280;75998;47.550;19.254;2024-01-25T05:03:28;99312.63;;;6.76;59.35
74621;BME280;75998;47.550;19.254;2024-01-25T05:05:53;99353.34;;;7.29;58.26
74621;BME280;75998;47.550;19.254;2024-01-25T05:08:19;99388.69;;;7.51;57.93
74621;BME280;75998;47.550;19.254;2024-01-25T05:10:47;99266.88;;;6.74;58.25
74621;BME280;75998;47.550;19.254;2024-01-25T05:13:13;99256.94;;;6.82;58.42
74621;BME280;75998;47.550;19.254;2024-01-25T05:15:38;99242.19;;;6.65;58.69
74621;BME280;75998;47.550;19.254;2024-01-25T05:18:04;99379.19;;;7.33;59.00
74621;BME280;75998;47.550;19.254;2024-01-25T05:20:32;99405.19;;;7.50;58.72
74621;BME280;75998;47.550;19.254;2024-01-25T05:23:03;99393.03;;;7.50;59.40
74621;BME280;75998;47.550;19.254;2024-01-25T05:25:29;99397.75;;;7.94;57.41
74621;BME280;75998;47.550;19.254;2024-01-25T05:27:58;99391.81;;;7.58;59.01
74621;BME280;75998;47.550;19.254;2024-01-25T05:30:24;99383.84;;;7.61;58.53
74621;BME280;75998;47.550;19.254;2024-01-25T05:32:50;99347.16;;;7.49;57.57
74621;BME280;75998;47.550;19.254;2024-01-25T05:35:16;99317.91;;;7.28;58.75
74621;BME280;75998;47.550;19.254;2024-01-25T05:37:42;99403.22;;;7.72;58.29
74621;BME280;75998;47.550;19.254;2024-01-25T05:40:09;99318.41;;;7.18;58.86
74621;BME280;75998;47.550;19.254;2024-01-25T05:42:37;99341.81;;;7.52;58.25
74621;BME280;75998;47.550;19.254;2024-01-25T05:45:03;99224.72;;;6.86;58.20
74621;BME280;75998;47.550;19.254;2024-01-25T05:47:31;99378.56;;;7.80;58.20
74621;BME280;75998;47.550;19.254;2024-01-25T05:49:57;99397.22;;;7.88;58.06
74621;BME280;75998;47.550;19.254;2024-01-25T05:52:23;99298.63;;;7.15;58.46
74621;BME280;75998;47.550;19.254;2024-01-25T05:54:50;99380.81;;;7.52;59.19
74621;BME280;75998;47.550;19.254;2024-01-25T05:57:16;99396.41;;;7.70;58.86
74621;BME280;75998;47.550;19.254;2024-01-25T05:59:44;99382.03;;;7.45;58.91
74621;BME280;75998;47.550;19.254;2024-01-25T06:02:09;99389.16;;;7.42;59.79
74621;BME280;75998;47.550;19.254;2024-01-25T06:04:35;99394.13;;;7.46;59.67
74621;BME280;75998;47.550;19.254;2024-01-25T06:07:01;99348.31;;;7.09;59.90
74621;BME280;75998;47.550;19.254;2024-01-25T06:09:29;99293.41;;;6.80;60.28
74621;BME280;75998;47.550;19.254;2024-01-25T06:11:57;99311.00;;;6.93;60.39
74621;BME280;75998;47.550;19.254;2024-01-25T06:14:22;99250.91;;;6.64;60.14
74621;BME280;75998;47.550;19.254;2024-01-25T06:16:48;99294.72;;;7.06;60.08
74621;BME280;75998;47.550;19.254;2024-01-25T06:19:14;99364.91;;;7.59;59.74
74621;BME280;75998;47.550;19.254;2024-01-25T06:21:39;99362.28;;;7.24;60.60
74621;BME280;75998;47.550;19.254;2024-01-25T06:24:05;99282.28;;;6.96;60.91
74621;BME280;75998;47.550;19.254;2024-01-25T06:26:33;99370.63;;;7.48;60.66
74621;BME280;75998;47.550;19.254;2024-01-25T06:28:59;99343.94;;;7.62;59.81
74621;BME280;75998;47.550;19.254;2024-01-25T06:31:24;99358.59;;;7.11;61.69
74621;BME280;75998;47.550;19.254;2024-01-25T06:33:51;99324.69;;;6.77;62.03
74621;BME280;75998;47.550;19.254;2024-01-25T06:36:21;99327.16;;;6.80;61.91
74621;BME280;75998;47.550;19.254;2024-01-25T06:38:46;99334.84;;;6.82;62.78
74621;BME280;75998;47.550;19.254;2024-01-25T06:41:12;99367.38;;;7.08;62.77
74621;BME280;75998;47.550;19.254;2024-01-25T06:43:37;99346.94;;;6.83;62.28
74621;BME280;75998;47.550;19.254;2024-01-25T06:46:05;99341.25;;;7.11;61.69
74621;BME280;75998;47.550;19.254;2024-01-25T06:48:31;99398.09;;;7.36;61.89
74621;BME280;75998;47.550;19.254;2024-01-25T06:50:59;99392.19;;;7.33;61.16
74621;BME280;75998;47.550;19.254;2024-01-25T06:53:26;99375.31;;;7.59;59.91
74621;BME280;75998;47.550;19.254;2024-01-25T06:55:51;99373.66;;;7.21;61.25
74621;BME280;75998;47.550;19.254;2024-01-25T06:58:17;99417.94;;;7.20;62.22
74621;BME280;75998;47.550;19.254;2024-01-25T07:00:43;99362.44;;;6.85;62.00
74621;BME280;75998;47.550;19.254;2024-01-25T07:03:10;99351.34;;;7.00;60.64
74621;BME280;75998;47.550;19.254;2024-01-25T07:05:35;99291.84;;;6.40;61.93
74621;BME280;75998;47.550;19.254;2024-01-25T07:08:04;99352.47;;;6.94;61.50
74621;BME280;75998;47.550;19.254;2024-01-25T07:10:30;99305.75;;;6.75;61.34
74621;BME280;75998;47.550;19.254;2024-01-25T07:12:57;99359.97;;;7.00;61.38
74621;BME280;75998;47.550;19.254;2024-01-25T07:15:22;99428.16;;;7.42;61.56
74621;BME280;75998;47.550;19.254;2024-01-25T07:17:47;99376.47;;;6.99;61.47
74621;BME280;75998;47.550;19.254;2024-01-25T07:20:13;99233.50;;;6.30;60.32
74621;BME280;75998;47.550;19.254;2024-01-25T07:22:39;99372.97;;;7.18;60.39
74621;BME280;75998;47.550;19.254;2024-01-25T07:25:05;99372.09;;;7.19;61.45
74621;BME280;75998;47.550;19.254;2024-01-25T07:27:30;99413.59;;;7.38;61.17
74621;BME280;75998;47.550;19.254;2024-01-25T07:29:56;99359.44;;;7.11;61.58
74621;BME280;75998;47.550;19.254;2024-01-25T07:32:21;99416.53;;;7.49;61.28
74621;BME280;75998;47.550;19.254;2024-01-25T07:34:46;99402.44;;;7.70;60.19
74621;BME280;75998;47.550;19.254;2024-01-25T07:37:12;99434.63;;;7.68;60.89
74621;BME280;75998;47.550;19.254;2024-01-25T07:39:38;99308.69;;;7.04;60.33
74621;BME280;75998;47.550;19.254;2024-01-25T07:42:03;99329.72;;;7.17;60.38
74621;BME280;75998;47.550;19.254;2024-01-25T07:44:29;99305.72;;;7.29;59.56
74621;BME280;75998;47.550;19.254;2024-01-25T07:46:54;99350.47;;;7.86;57.80
74621;BME280;75998;47.550;19.254;2024-01-25T07:49:20;99273.41;;;7.68;57.17
74621;BME280;75998;47.550;19.254;2024-01-25T07:51:45;99293.56;;;7.80;56.52
74621;BME280;75998;47.550;19.254;2024-01-25T07:54:12;99256.78;;;7.70;55.82
74621;BME280;75998;47.550;19.254;2024-01-25T07:56:38;99328.34;;;8.28;55.71
74621;BME280;75998;47.550;19.254;2024-01-25T07:59:04;99235.91;;;7.72;55.75
74621;BME280;75998;47.550;19.254;2024-01-25T08:01:29;99233.16;;;7.75;55.42
74621;BME280;75998;47.550;19.254;2024-01-25T08:03:55;99228.53;;;7.80;55.35
74621;BME280;75998;47.550;19.254;2024-01-25T08:06:21;99254.81;;;8.07;55.14
74621;BME280;75998;47.550;19.254;2024-01-25T08:08:46;99301.31;;;8.46;53.87
74621;BME280;75998;47.550;19.254;2024-01-25T08:11:12;99253.75;;;8.11;54.24
74621;BME280;75998;47.550;19.254;2024-01-25T08:13:37;99219.63;;;7.84;54.47
74621;BME280;75998;47.550;19.254;2024-01-25T08:16:03;99271.47;;;8.36;53.85
74621;BME280;75998;47.550;19.254;2024-01-25T08:18:28;99281.22;;;8.33;54.05
74621;BME280;75998;47.550;19.254;2024-01-25T08:20:55;99252.31;;;8.37;53.17
74621;BME280;75998;47.550;19.254;2024-01-25T08:23:21;99324.41;;;8.68;53.66
74621;BME280;75998;47.550;19.254;2024-01-25T08:25:46;99114.00;;;7.50;53.25
74621;BME280;75998;47.550;19.254;2024-01-25T08:28:12;99244.59;;;8.20;52.89
74621;BME280;75998;47.550;19.254;2024-01-25T08:30:37;99311.47;;;8.67;52.47
74621;BME280;75998;47.550;19.254;2024-01-25T08:33:03;99332.13;;;8.86;52.05
74621;BME280;75998;47.550;19.254;2024-01-25T08:35:29;99289.78;;;8.66;51.79
74621;BME280;75998;47.550;19.254;2024-01-25T08:37:55;99348.41;;;9.05;51.00
74621;BME280;75998;47.550;19.254;2024-01-25T08:40:22;99150.00;;;7.73;52.46
74621;BME280;75998;47.550;19.254;2024-01-25T08:42:47;99360.78;;;9.02;52.17
74621;BME280;75998;47.550;19.254;2024-01-25T08:45:13;99371.88;;;9.05;52.64
74621;BME280;75998;47.550;19.254;2024-01-25T08:47:38;99278.53;;;8.50;52.45
74621;BME280;75998;47.550;19.254;2024-01-25T08:50:04;99279.91;;;8.41;52.68
74621;BME280;75998;47.550;19.254;2024-01-25T08:52:33;99352.41;;;8.65;52.00
74621;BME280;75998;47.550;19.254;2024-01-25T08:54:59;99367.16;;;8.96;52.55
74621;BME280;75998;47.550;19.254;2024-01-25T08:57:25;99357.06;;;8.90;53.80
74621;BME280;75998;47.550;19.254;2024-01-25T08:59:50;99404.31;;;9.15;53.67
74621;BME280;75998;47.550;19.254;2024-01-25T09:02:16;99360.44;;;8.76;53.41
74621;BME280;75998;47.550;19.254;2024-01-25T09:04:44;99382.13;;;8.77;53.73
74621;BME280;75998;47.550;19.254;2024-01-25T09:07:10;99467.22;;;9.25;54.06
74621;BME280;75998;47.550;19.254;2024-01-25T09:09:35;99430.72;;;9.09;53.49
74621;BME280;75998;47.550;19.254;2024-01-25T09:12:03;99430.66;;;9.11;53.57
74621;BME280;75998;47.550;19.254;2024-01-25T09:14:29;99399.59;;;8.90;53.49
74621;BME280;75998;47.550;19.254;2024-01-25T09:16:56;99269.94;;;8.16;53.92
74621;BME280;75998;47.550;19.254;2024-01-25T09:19:22;99348.63;;;8.55;53.50
74621;BME280;75998;47.550;19.254;2024-01-25T09:21:47;99280.53;;;8.13;53.59
74621;BME280;75998;47.550;19.254;2024-01-25T09:24:16;99152.31;;;7.46;52.94
74621;BME280;75998;47.550;19.254;2024-01-25T09:26:49;99499.91;;;9.47;53.84
74621;BME280;75998;47.550;19.254;2024-01-25T09:29:17;99189.75;;;7.60;53.77
74621;BME280;75998;47.550;19.254;2024-01-25T09:31:43;99310.09;;;8.28;53.84
74621;BME280;75998;47.550;19.254;2024-01-25T09:34:08;99393.03;;;8.67;54.02
74621;BME280;75998;47.550;19.254;2024-01-25T09:36:34;99212.75;;;7.67;53.41
74621;BME280;75998;47.550;19.254;2024-01-25T09:38:59;99296.81;;;8.17;53.51
74621;BME280;75998;47.550;19.254;2024-01-25T09:41:25;99400.53;;;8.89;53.08
74621;BME280;75998;47.550;19.254;2024-01-25T09:43:53;99381.63;;;9.02;53.50
74621;BME280;75998;47.550;19.254;2024-01-25T09:46:18;99420.72;;;9.17;53.48
74621;BME280;75998;47.550;19.254;2024-01-25T09:48:44;99431.59;;;8.94;54.22
74621;BME280;75998;47.550;19.254;2024-01-25T09:51:11;99467.88;;;9.45;53.01
74621;BME280;75998;47.550;19.254;2024-01-25T09:53:39;99491.09;;;9.33;53.97
74621;BME280;75998;47.550;19.254;2024-01-25T09:56:07;99466.88;;;9.31;54.21
74621;BME280;75998;47.550;19.254;2024-01-25T09:58:40;99476.34;;;9.48;53.43
74621;BME280;75998;47.550;19.254;2024-01-25T10:01:13;99535.63;;;9.76;53.36
74621;BME280;75998;47.550;19.254;2024-01-25T10:03:41;99525.19;;;9.76;54.17
74621;BME280;75998;47.550;19.254;2024-01-25T10:06:07;99498.97;;;9.63;51.93
74621;BME280;75998;47.550;19.254;2024-01-25T10:08:34;99490.72;;;9.71;52.09
74621;BME280;75998;47.550;19.254;2024-01-25T10:11:00;99477.53;;;9.88;51.96
74621;BME280;75998;47.550;19.254;2024-01-25T10:13:28;99448.31;;;9.52;51.77
74621;BME280;75998;47.550;19.254;2024-01-25T10:15:53;99433.78;;;9.78;51.73
74621;BME280;75998;47.550;19.254;2024-01-25T10:18:22;99544.44;;;10.35;50.59
74621;BME280;75998;47.550;19.254;2024-01-25T10:20:47;99545.81;;;9.97;50.36
74621;BME280;75998;47.550;19.254;2024-01-25T10:23:13;99458.00;;;9.50;51.30
74621;BME280;75998;47.550;19.254;2024-01-25T10:25:38;99511.06;;;9.80;51.15
74621;BME280;75998;47.550;19.254;2024-01-25T10:28:05;99520.47;;;10.13;51.22
74621;BME280;75998;47.550;19.254;2024-01-25T10:30:35;99519.28;;;10.19;49.99
74621;BME280;75998;47.550;19.254;2024-01-25T10:33:02;99498.22;;;10.22;50.57
74621;BME280;75998;47.550;19.254;2024-01-25T10:35:28;99432.94;;;9.77;49.03
74621;BME280;75998;47.550;19.254;2024-01-25T10:37:54;99400.31;;;9.70;49.10
74621;BME280;75998;47.550;19.254;2024-01-25T10:40:20;99431.44;;;9.73;49.55
74621;BME280;75998;47.550;19.254;2024-01-25T10:42:48;99377.41;;;9.45;48.52
74621;BME280;75998;47.550;19.254;2024-01-25T10:45:14;99470.97;;;10.11;48.09
74621;BME280;75998;47.550;19.254;2024-01-25T10:47:39;99412.28;;;9.58;49.84
74621;BME280;75998;47.550;19.254;2024-01-25T10:50:11;99458.13;;;9.93;49.20
74621;BME280;75998;47.550;19.254;2024-01-25T10:52:39;99471.16;;;10.23;48.76
74621;BME280;75998;47.550;19.254;2024-01-25T10:55:05;99471.31;;;10.20;48.47
74621;BME280;75998;47.550;19.254;2024-01-25T10:57:43;99451.75;;;10.12;49.10
74621;BME280;75998;47.550;19.254;2024-01-25T11:00:15;99427.44;;;10.26;48.96
74621;BME280;75998;47.550;19.254;2024-01-25T11:02:45;99502.34;;;10.26;49.36
74621;BME280;75998;47.550;19.254;2024-01-25T11:05:12;99519.75;;;10.25;49.50
74621;BME280;75998;47.550;19.254;2024-01-25T11:07:50;99489.75;;;9.88;50.12
74621;BME280;75998;47.550;19.254;2024-01-25T11:10:20;99497.88;;;10.28;51.01
74621;BME280;75998;47.550;19.254;2024-01-25T11:12:51;99444.38;;;10.05;49.45
74621;BME280;75998;47.550;19.254;2024-01-25T11:15:21;99403.53;;;9.59;49.75
74621;BME280;75998;47.550;19.254;2024-01-25T11:17:52;99424.81;;;10.26;48.25
74621;BME280;75998;47.550;19.254;2024-01-25T11:20:20;99461.56;;;10.23;48.77
74621;BME280;75998;47.550;19.254;2024-01-25T11:22:46;99420.22;;;10.01;47.45
74621;BME280;75998;47.550;19.254;2024-01-25T11:25:13;99414.28;;;9.69;47.78
74621;BME280;75998;47.550;19.254;2024-01-25T11:27:42;99516.88;;;10.60;47.58
74621;BME280;75998;47.550;19.254;2024-01-25T11:30:08;99411.50;;;9.86;47.71
74621;BME280;75998;47.550;19.254;2024-01-25T11:32:35;99476.84;;;10.15;48.01
74621;BME280;75998;47.550;19.254;2024-01-25T11:35:00;99500.63;;;10.25;48.72
74621;BME280;75998;47.550;19.254;2024-01-25T11:37:26;99392.50;;;9.84;47.83
74621;BME280;75998;47.550;19.254;2024-01-25T11:39:51;99311.69;;;9.24;48.00
74621;BME280;75998;47.550;19.254;2024-01-25T11:42:17;99466.03;;;10.21;47.73
74621;BME280;75998;47.550;19.254;2024-01-25T11:44:43;99475.91;;;10.16;48.43
74621;BME280;75998;47.550;19.254;2024-01-25T11:47:09;99369.47;;;9.47;48.07
74621;BME280;75998;47.550;19.254;2024-01-25T11:49:34;99347.94;;;9.29;49.18
74621;BME280;75998;47.550;19.254;2024-01-25T11:52:00;99433.38;;;10.14;48.43
74621;BME280;75998;47.550;19.254;2024-01-25T11:54:27;99476.94;;;10.14;48.62
74621;BME280;75998;47.550;19.254;2024-01-25T11:56:53;99334.88;;;9.73;48.25
74621;BME280;75998;47.550;19.254;2024-01-25T11:59:19;99381.72;;;9.91;47.80
74621;BME280;75998;47.550;19.254;2024-01-25T12:01:44;99384.72;;;9.69;48.44
74621;BME280;75998;47.550;19.254;2024-01-25T12:04:10;99402.00;;;9.71;48.44
74621;BME280;75998;47.550;19.254;2024-01-25T12:06:35;99426.31;;;9.72;47.82
74621;BME280;75998;47.550;19.254;2024-01-25T12:09:10;99411.00;;;9.65;47.89
74621;BME280;75998;47.550;19.254;2024-01-25T12:11:39;99391.72;;;9.68;48.77
74621;BME280;75998;47.550;19.254;2024-01-25T12:14:07;99409.19;;;9.52;48.14
74621;BME280;75998;47.550;19.254;2024-01-25T12:16:33;99472.88;;;9.94;47.91
74621;BME280;75998;47.550;19.254;2024-01-25T12:18:58;99461.22;;;9.99;48.40
74621;BME280;75998;47.550;19.254;2024-01-25T12:21:24;99467.66;;;9.94;48.00
74621;BME280;75998;47.550;19.254;2024-01-25T12:23:49;99413.06;;;9.60;47.92
74621;BME280;75998;47.550;19.254;2024-01-25T12:26:15;99454.06;;;10.03;47.46
74621;BME280;75998;47.550;19.254;2024-01-25T12:28:41;99440.31;;;9.85;47.86
74621;BME280;75998;47.550;19.254;2024-01-25T12:31:07;99442.66;;;9.89;48.15
74621;BME280;75998;47.550;19.254;2024-01-25T12:33:33;99474.69;;;10.07;48.07
74621;BME280;75998;47.550;19.254;2024-01-25T12:35:59;99418.38;;;9.73;48.05
74621;BME280;75998;47.550;19.254;2024-01-25T12:38:25;99432.88;;;9.93;48.73
74621;BME280;75998;47.550;19.254;2024-01-25T12:40:51;99448.16;;;9.85;48.48
74621;BME280;75998;47.550;19.254;2024-01-25T12:43:17;99413.41;;;9.54;48.60
74621;BME280;75998;47.550;19.254;2024-01-25T12:45:43;99459.84;;;9.63;48.29
74621;BME280;75998;47.550;19.254;2024-01-25T12:48:09;99436.41;;;9.48;48.44
74621;BME280;75998;47.550;19.254;2024-01-25T12:50:35;99435.13;;;9.55;48.46
74621;BME280;75998;47.550;19.254;2024-01-25T12:53:01;99435.56;;;9.47;49.51
74621;BME280;75998;47.550;19.254;2024-01-25T12:55:28;99453.75;;;9.63;49.06